createdAt,value
2023-01-20T00:01:43.351Z,100470.03
2023-01-20T00:04:10.374Z,100474.50
2023-01-20T00:06:37.200Z,100478.19
2023-01-20T00:09:06.513Z,100477.78
2023-01-20T00:11:33.683Z,100482.47
2023-01-20T00:14:02.265Z,100477.78
2023-01-20T00:16:31.731Z,100478.38
2023-01-20T00:18:59.000Z,100470.84
2023-01-20T00:21:26.101Z,100487.16
2023-01-20T00:23:53.054Z,100492.44
2023-01-20T00:26:23.212Z,100497.75
2023-01-20T00:28:52.543Z,100487.16
2023-01-20T00:31:23.090Z,100486.53
2023-01-20T00:33:52.088Z,100489.59
2023-01-20T00:36:21.322Z,100499.78
2023-01-20T00:38:48.704Z,100498.13
2023-01-20T00:41:16.150Z,100500.41
2023-01-20T00:43:43.410Z,100501.84
2023-01-20T00:46:10.947Z,100508.16
2023-01-20T00:48:38.952Z,100502.25
2023-01-20T00:51:07.520Z,100505.50
2023-01-20T00:53:35.308Z,100512.03
2023-01-20T00:56:02.308Z,100512.63
2023-01-20T00:58:29.402Z,100519.56
2023-01-20T01:00:57.706Z,100520.81
2023-01-20T01:03:24.916Z,100518.16
2023-01-20T01:05:51.736Z,100521.63
2023-01-20T01:08:18.651Z,100517.13
2023-01-20T01:10:45.649Z,100528.78
2023-01-20T01:13:12.457Z,100530.81
2023-01-20T01:15:39.551Z,100535.91
2023-01-20T01:18:07.037Z,100536.72
2023-01-20T01:20:33.927Z,100535.09
2023-01-20T01:23:00.875Z,100541.81
2023-01-20T01:25:27.784Z,100544.66
2023-01-20T01:27:54.748Z,100542.22
2023-01-20T01:30:21.911Z,100544.22
2023-01-20T01:32:48.886Z,100545.47
2023-01-20T01:35:16.379Z,100545.47
2023-01-20T01:37:43.547Z,100541.38
2023-01-20T01:40:11.658Z,100551.16
2023-01-20T01:42:39.953Z,100542.81
2023-01-20T01:45:12.017Z,100551.78
2023-01-20T01:48:06.092Z,100550.75
2023-01-20T01:50:41.212Z,100558.72
2023-01-20T01:53:09.897Z,100567.06
2023-01-20T01:55:43.276Z,100564.63
2023-01-20T01:58:15.529Z,100566.25
2023-01-20T02:00:43.933Z,100571.97
2023-01-20T02:03:11.701Z,100576.03
2023-01-20T02:05:41.290Z,100575.81
2023-01-20T02:08:08.675Z,100580.50
2023-01-20T02:10:35.806Z,100584.75
2023-01-20T02:13:03.242Z,100582.72
2023-01-20T02:16:04.417Z,100592.50
2023-01-20T02:18:48.750Z,100579.88
2023-01-20T02:22:01.134Z,100587.59
2023-01-20T02:24:58.225Z,100611.44
2023-01-20T02:27:59.896Z,100607.78
2023-01-20T02:31:18.327Z,100613.69
2023-01-20T02:34:04.658Z,100618.19
2023-01-20T02:37:13.905Z,100632.25
2023-01-20T02:39:55.657Z,100633.88
2023-01-20T02:42:28.326Z,100640.41
2023-01-20T02:45:17.079Z,100636.72
2023-01-20T02:48:12.467Z,100641.22
2023-01-20T02:51:15.177Z,100636.13
2023-01-20T02:54:00.578Z,100644.69
2023-01-20T02:56:29.782Z,100638.75
2023-01-20T02:59:06.535Z,100640.19
2023-01-20T03:01:50.980Z,100655.88
2023-01-20T03:04:27.993Z,100650.19
2023-01-20T03:06:57.337Z,100650.19
2023-01-20T03:09:31.529Z,100654.84
2023-01-20T03:12:07.756Z,100654.66
2023-01-20T03:14:34.793Z,100668.50
2023-01-20T03:17:02.735Z,100670.53
2023-01-20T03:19:30.023Z,100663.59
2023-01-20T03:21:57.601Z,100668.28
2023-01-20T03:24:26.014Z,100677.47
2023-01-20T03:26:52.816Z,100668.50
2023-01-20T03:29:19.794Z,100677.47
2023-01-20T03:31:51.808Z,100684.41
2023-01-20T03:34:23.044Z,100684.19
2023-01-20T03:36:52.288Z,100686.44
2023-01-20T03:39:20.043Z,100683.16
2023-01-20T03:42:07.336Z,100699.69
2023-01-20T03:45:04.506Z,100701.09
2023-01-20T03:47:57.624Z,100699.66
2023-01-20T03:50:41.210Z,100705.97
2023-01-20T03:53:34.672Z,100703.28
2023-01-20T03:56:14.843Z,100704.09
2023-01-20T03:58:46.958Z,100699.41
2023-01-20T04:01:18.752Z,100702.06
2023-01-20T04:03:49.897Z,100707.53
2023-01-20T04:06:19.990Z,100715.28
2023-01-20T04:08:59.964Z,100716.50
2023-01-20T04:11:27.799Z,100719.94
2023-01-20T04:13:55.549Z,100716.47
2023-01-20T04:16:24.385Z,100716.44
2023-01-20T04:18:53.158Z,100723.81
2023-01-20T04:21:29.733Z,100733.78
2023-01-20T04:24:05.847Z,100729.88
2023-01-20T04:26:32.859Z,100721.09
2023-01-20T04:28:59.752Z,100730.88
2023-01-20T04:31:31.181Z,100714.09
2023-01-20T04:33:58.416Z,100731.69
2023-01-20T04:36:25.932Z,100738.81
2023-01-20T04:38:52.992Z,100734.06
2023-01-20T04:41:20.032Z,100749.31
2023-01-20T04:43:47.216Z,100736.88
2023-01-20T04:46:15.482Z,100746.81
2023-01-20T04:48:44.869Z,100745.81
2023-01-20T04:51:11.836Z,100750.09
2023-01-20T04:53:39.383Z,100754.63
2023-01-20T04:56:15.035Z,100767.09
2023-01-20T04:58:42.879Z,100759.97
2023-01-20T05:01:10.042Z,100759.16
2023-01-20T05:03:37.375Z,100760.81
2023-01-20T05:06:06.133Z,100764.88
2023-01-20T05:08:33.540Z,100761.63
2023-01-20T05:11:00.381Z,100771.00
2023-01-20T05:13:27.436Z,100780.56
2023-01-20T05:15:54.507Z,100774.69
2023-01-20T05:18:21.406Z,100782.44
2023-01-20T05:20:49.586Z,100790.38
2023-01-20T05:23:17.538Z,100790.53
2023-01-20T05:25:51.473Z,100805.00
2023-01-20T05:28:18.934Z,100798.59
2023-01-20T05:30:46.853Z,100801.63
2023-01-20T05:33:14.076Z,100809.81
2023-01-20T05:35:41.311Z,100818.03
2023-01-20T05:38:08.210Z,100816.63
2023-01-20T05:40:35.096Z,100825.63
2023-01-20T05:43:02.649Z,100829.34
2023-01-20T05:45:31.139Z,100822.78
2023-01-20T05:48:01.451Z,100821.38
2023-01-20T05:50:29.251Z,100828.09
2023-01-20T05:52:56.567Z,100832.75
2023-01-20T05:55:23.598Z,100832.94
2023-01-20T05:57:50.520Z,100838.63
2023-01-20T06:00:19.027Z,100838.19
2023-01-20T06:02:46.042Z,100842.25
2023-01-20T06:05:13.612Z,100854.00
2023-01-20T06:07:40.710Z,100855.22
2023-01-20T06:10:08.793Z,100854.16
2023-01-20T06:12:35.755Z,100866.38
2023-01-20T06:15:02.871Z,100869.84
2023-01-20T06:17:29.699Z,100858.00
2023-01-20T06:19:56.731Z,100873.69
2023-01-20T06:22:23.570Z,100878.53
2023-01-20T06:24:50.455Z,100880.56
2023-01-20T06:27:17.263Z,100888.69
2023-01-20T06:29:44.306Z,100895.19
2023-01-20T06:32:11.478Z,100904.31
2023-01-20T06:34:38.843Z,100890.66
2023-01-20T06:37:05.699Z,100898.78
2023-01-20T06:39:32.571Z,100905.72
2023-01-20T06:42:00.410Z,100917.31
2023-01-20T06:44:27.479Z,100926.69
2023-01-20T06:46:54.545Z,100927.69
2023-01-20T06:49:21.486Z,100933.19
2023-01-20T06:51:49.379Z,100937.22
2023-01-20T06:54:16.630Z,100940.44
2023-01-20T06:56:44.056Z,100948.75
2023-01-20T06:59:12.193Z,100944.84
2023-01-20T07:01:40.030Z,100961.72
2023-01-20T07:04:08.172Z,100954.97
2023-01-20T07:06:40.140Z,100961.06
2023-01-20T07:09:10.810Z,100966.56
2023-01-20T07:11:37.821Z,100978.78
2023-01-20T07:14:06.342Z,100978.97
2023-01-20T07:16:34.214Z,100987.09
2023-01-20T07:19:01.089Z,100993.00
2023-01-20T07:21:28.489Z,100973.22
2023-01-20T07:23:56.054Z,100991.81
2023-01-20T07:26:26.903Z,100995.47
2023-01-20T07:28:54.349Z,100997.09
2023-01-20T07:31:24.964Z,101006.88
2023-01-20T07:33:55.402Z,101004.69
2023-01-20T07:36:24.199Z,101000.66
2023-01-20T07:38:52.361Z,101006.56
2023-01-20T07:41:22.356Z,101009.41
2023-01-20T07:43:53.085Z,101005.94
2023-01-20T07:46:21.215Z,101013.88
2023-01-20T07:48:49.492Z,101009.22
2023-01-20T07:51:18.176Z,101014.50
2023-01-20T07:53:49.433Z,101020.25
2023-01-20T07:56:27.171Z,101027.38
2023-01-20T07:58:56.821Z,101020.63
2023-01-20T08:01:28.224Z,101022.91
2023-01-20T08:03:57.622Z,101032.28
2023-01-20T08:06:26.726Z,101032.75
2023-01-20T08:08:58.718Z,101040.31
2023-01-20T08:11:26.990Z,101040.56
2023-01-20T08:13:56.725Z,101041.66
2023-01-20T08:16:25.068Z,101041.91
2023-01-20T08:18:56.117Z,101043.78
2023-01-20T08:21:32.717Z,101050.00
2023-01-20T08:24:03.561Z,101061.50
2023-01-20T08:26:33.434Z,101060.72
2023-01-20T08:29:09.046Z,101059.09
2023-01-20T08:31:38.489Z,101064.97
2023-01-20T08:34:06.766Z,101060.84
2023-01-20T08:36:37.848Z,101066.16
2023-01-20T08:39:09.757Z,101061.50
2023-01-20T08:41:41.000Z,101067.59
2023-01-20T08:44:10.144Z,101070.06
2023-01-20T08:46:41.641Z,101071.13
2023-01-20T08:49:18.643Z,101077.13
2023-01-20T08:51:46.520Z,101083.69
2023-01-20T08:54:14.640Z,101083.94
2023-01-20T08:56:41.872Z,101098.06
2023-01-20T08:59:08.786Z,101091.56
2023-01-20T09:01:37.973Z,101092.41
2023-01-20T09:04:08.378Z,101097.38
2023-01-20T09:06:49.286Z,101106.41
2023-01-20T09:09:19.030Z,101098.63
2023-01-20T09:11:50.819Z,101105.56
2023-01-20T09:14:24.593Z,101119.06
2023-01-20T09:16:52.340Z,101121.19
2023-01-20T09:19:19.713Z,101126.09
2023-01-20T09:21:46.722Z,101128.13
2023-01-20T09:24:14.022Z,101140.88
2023-01-20T09:26:41.030Z,101141.25
2023-01-20T09:29:17.204Z,101149.22
2023-01-20T09:31:59.002Z,101147.56
2023-01-20T09:34:29.712Z,101154.50
2023-01-20T09:37:20.237Z,101143.66
2023-01-20T09:40:06.781Z,101152.63
2023-01-20T09:43:14.123Z,101153.53
2023-01-20T09:46:02.544Z,101161.97
2023-01-20T09:49:01.700Z,101165.84
2023-01-20T09:52:13.521Z,101171.88
2023-01-20T09:55:03.776Z,101169.53
2023-01-20T09:57:37.873Z,101161.06
2023-01-20T10:00:18.090Z,101170.47
2023-01-20T10:02:51.804Z,101167.19
2023-01-20T10:05:33.466Z,101171.66
2023-01-20T10:08:14.377Z,101168.38
2023-01-20T10:11:05.835Z,101185.53
2023-01-20T10:14:03.963Z,101192.75
2023-01-20T10:17:07.445Z,101189.81
2023-01-20T10:19:42.774Z,101194.97
2023-01-20T10:22:51.243Z,101194.88
2023-01-20T10:25:32.613Z,101192.03
2023-01-20T10:28:15.257Z,101192.94
2023-01-20T10:30:42.875Z,101195.03
2023-01-20T10:33:12.918Z,101191.91
2023-01-20T10:35:53.696Z,101191.41
2023-01-20T10:38:31.195Z,101195.56
2023-01-20T10:41:13.427Z,101190.13
2023-01-20T10:43:42.506Z,101194.28
2023-01-20T10:46:24.813Z,101202.34
2023-01-20T10:49:45.594Z,101198.91
2023-01-20T10:52:44.068Z,101198.91
2023-01-20T10:55:42.231Z,101201.00
2023-01-20T10:58:12.401Z,101209.16
2023-01-20T11:00:41.283Z,101198.09
2023-01-20T11:03:17.053Z,101192.16
2023-01-20T11:05:45.823Z,101204.66
2023-01-20T11:08:23.554Z,101192.06
2023-01-20T11:10:57.220Z,101200.66
2023-01-20T11:13:24.657Z,101208.03
2023-01-20T11:15:57.550Z,101211.50
2023-01-20T11:18:31.564Z,101205.19
2023-01-20T11:21:04.825Z,101213.16
2023-01-20T11:23:38.388Z,101211.31
2023-01-20T11:26:30.707Z,101203.59
2023-01-20T11:29:02.789Z,101213.38
2023-01-20T11:31:40.982Z,101210.72
2023-01-20T11:34:33.202Z,101204.69
2023-01-20T11:37:06.289Z,101206.75
2023-01-20T11:40:00.156Z,101204.91
2023-01-20T11:42:31.121Z,101216.94
2023-01-20T11:45:20.222Z,101213.88
2023-01-20T11:48:05.993Z,101212.28
2023-01-20T11:50:50.036Z,101212.72
2023-01-20T11:53:26.805Z,101215.41
2023-01-20T11:56:26.920Z,101219.34
2023-01-20T11:59:01.974Z,101218.16
2023-01-20T12:01:49.746Z,101223.50
2023-01-20T12:04:50.700Z,101237.78
2023-01-20T12:07:45.882Z,101231.84
2023-01-20T12:10:35.820Z,101240.44
2023-01-20T12:13:13.011Z,101234.13
2023-01-20T12:15:44.649Z,101241.88
2023-01-20T12:18:37.796Z,101246.19
2023-01-20T12:21:18.308Z,101244.53
2023-01-20T12:24:10.273Z,101240.88
2023-01-20T12:26:37.569Z,101256.81
2023-01-20T12:29:18.396Z,101259.06
2023-01-20T12:31:49.231Z,101266.84
2023-01-20T12:34:24.181Z,101264.81
2023-01-20T12:37:17.189Z,101278.09
2023-01-20T12:40:17.478Z,101280.75
2023-01-20T12:43:27.473Z,101286.06
2023-01-20T12:46:27.221Z,101296.69
2023-01-20T12:49:40.373Z,101286.06
2023-01-20T12:52:29.063Z,101298.09
2023-01-20T12:55:23.417Z,101298.50
2023-01-20T12:58:15.568Z,101298.94
2023-01-20T13:01:21.462Z,101305.06
2023-01-20T13:04:32.314Z,101301.38
2023-01-20T13:07:36.511Z,101316.72
2023-01-20T13:10:39.570Z,101313.44
2023-01-20T13:13:56.025Z,101317.09
2023-01-20T13:16:45.740Z,101319.56
2023-01-20T13:19:19.945Z,101319.56
2023-01-20T13:22:02.885Z,101323.22
2023-01-20T13:24:35.084Z,101325.69
2023-01-20T13:27:02.966Z,101323.66
2023-01-20T13:29:35.812Z,101330.19
2023-01-20T13:32:04.397Z,101328.53
2023-01-20T13:34:33.745Z,101326.50
2023-01-20T13:37:04.014Z,101325.31
2023-01-20T13:39:46.771Z,101333.91
2023-01-20T13:42:48.894Z,101333.28
2023-01-20T13:45:22.510Z,101333.66
2023-01-20T13:48:22.379Z,101335.13
2023-01-20T13:50:50.290Z,101327.72
2023-01-20T13:53:20.531Z,101342.84
2023-01-20T13:55:48.090Z,101343.03
2023-01-20T13:58:24.734Z,101341.63
2023-01-20T14:00:59.458Z,101347.56
2023-01-20T14:03:35.333Z,101352.06
2023-01-20T14:06:06.793Z,101352.88
2023-01-20T14:08:47.056Z,101357.00
2023-01-20T14:11:20.546Z,101355.16
2023-01-20T14:14:02.050Z,101361.09
2023-01-20T14:16:36.112Z,101350.84
2023-01-20T14:19:32.503Z,101353.28
2023-01-20T14:22:20.708Z,101356.31
2023-01-20T14:24:52.692Z,101366.50
2023-01-20T14:27:23.898Z,101376.31
2023-01-20T14:29:53.965Z,101376.69
2023-01-20T14:32:27.917Z,101382.66
2023-01-20T14:34:56.247Z,101396.75
2023-01-20T14:37:36.828Z,101391.19
2023-01-20T14:40:25.357Z,101399.34
2023-01-20T14:43:19.904Z,101399.53
2023-01-20T14:45:51.434Z,101412.38
2023-01-20T14:48:33.424Z,101410.09
2023-01-20T14:51:03.983Z,101413.16
2023-01-20T14:53:30.987Z,101420.28
2023-01-20T14:56:02.939Z,101416.00
2023-01-20T14:58:31.048Z,101425.97
2023-01-20T15:01:04.532Z,101423.34
2023-01-20T15:03:32.753Z,101436.81
2023-01-20T15:06:12.097Z,101444.13
2023-01-20T15:08:39.154Z,101440.22
2023-01-20T15:11:18.952Z,101452.22
2023-01-20T15:13:57.186Z,101448.66
2023-01-20T15:16:37.049Z,101451.03
2023-01-20T15:19:16.444Z,101460.59
2023-01-20T15:21:49.163Z,101456.84
2023-01-20T15:24:37.365Z,101458.59
2023-01-20T15:27:26.669Z,101457.06
2023-01-20T15:30:15.254Z,101464.75
2023-01-20T15:32:42.951Z,101477.31
2023-01-20T15:35:15.956Z,101478.50
2023-01-20T15:37:44.259Z,101478.25
2023-01-20T15:40:21.467Z,101496.34
2023-01-20T15:42:49.535Z,101488.31
2023-01-20T15:45:17.844Z,101498.66
2023-01-20T15:47:46.596Z,101510.63
2023-01-20T15:50:22.616Z,101504.22
2023-01-20T15:52:49.830Z,101511.88
2023-01-20T15:55:19.494Z,101528.97
2023-01-20T15:57:51.184Z,101528.69
2023-01-20T16:00:22.807Z,101529.03
2023-01-20T16:02:49.775Z,101534.53
2023-01-20T16:05:17.812Z,101526.28
2023-01-20T16:07:46.853Z,101538.69
2023-01-20T16:10:16.878Z,101552.94
2023-01-20T16:12:45.124Z,101551.47
2023-01-20T16:15:18.043Z,101555.13
2023-01-20T16:17:45.366Z,101560.63
2023-01-20T16:20:23.600Z,101562.63
2023-01-20T16:22:51.623Z,101561.16
2023-01-20T16:25:20.013Z,101558.84
2023-01-20T16:27:47.435Z,101561.88
2023-01-20T16:30:23.448Z,101565.06
2023-01-20T16:32:50.907Z,101562.94
2023-01-20T16:35:19.782Z,101576.38
2023-01-20T16:37:48.052Z,101560.19
2023-01-20T16:40:20.822Z,101582.03
2023-01-20T16:42:48.789Z,101596.28
2023-01-20T16:45:34.725Z,101589.31
2023-01-20T16:48:01.830Z,101594.97
2023-01-20T16:50:28.880Z,101590.22
2023-01-20T16:52:56.683Z,101594.69
2023-01-20T16:55:24.441Z,101599.97
2023-01-20T16:57:51.321Z,101607.94
2023-01-20T17:00:19.676Z,101608.75
2023-01-20T17:02:51.863Z,101610.75
2023-01-20T17:05:25.791Z,101619.53
2023-01-20T17:07:56.722Z,101617.88
2023-01-20T17:10:30.077Z,101622.53
2023-01-20T17:12:57.328Z,101625.69
2023-01-20T17:15:25.436Z,101630.16
2023-01-20T17:17:55.921Z,101633.81
2023-01-20T17:20:23.423Z,101624.41
2023-01-20T17:22:57.521Z,101634.81
2023-01-20T17:25:24.853Z,101635.81
2023-01-20T17:27:51.748Z,101628.22
2023-01-20T17:30:19.218Z,101642.28
2023-01-20T17:32:51.305Z,101650.06
2023-01-20T17:35:18.845Z,101650.06
2023-01-20T17:37:45.825Z,101655.19
2023-01-20T17:40:13.691Z,101661.00
2023-01-20T17:42:40.668Z,101661.47
2023-01-20T17:45:08.169Z,101671.25
2023-01-20T17:47:35.042Z,101666.31
2023-01-20T17:50:02.087Z,101675.06
2023-01-20T17:52:29.298Z,101676.91
2023-01-20T17:54:56.378Z,101670.59
2023-01-20T17:57:23.226Z,101683.84
2023-01-20T17:59:50.266Z,101681.19
2023-01-20T18:02:18.595Z,101689.31
2023-01-20T18:04:46.024Z,101693.97
2023-01-20T18:07:13.540Z,101689.47
2023-01-20T18:09:42.865Z,101695.59
2023-01-20T18:12:10.201Z,101700.06
2023-01-20T18:14:37.074Z,101704.38
2023-01-20T18:17:04.125Z,101707.38
2023-01-20T18:19:31.009Z,101707.53
2023-01-20T18:21:59.607Z,101709.19
2023-01-20T18:24:26.413Z,101719.63
2023-01-20T18:26:53.323Z,101717.31
2023-01-20T18:29:20.151Z,101727.25
2023-01-20T18:31:47.361Z,101714.66
2023-01-20T18:34:15.684Z,101726.78
2023-01-20T18:36:46.027Z,101734.03
2023-01-20T18:39:38.846Z,101730.06
2023-01-20T18:42:05.919Z,101739.00
2023-01-20T18:44:32.798Z,101740.19
2023-01-20T18:46:59.677Z,101734.56
2023-01-20T18:49:26.526Z,101746.81
2023-01-20T18:51:53.490Z,101744.84
2023-01-20T18:54:24.850Z,101752.97
2023-01-20T18:56:52.589Z,101753.28
2023-01-20T18:59:19.686Z,101741.41
2023-01-20T19:01:47.430Z,101743.88
2023-01-20T19:04:14.515Z,101751.31
2023-01-20T19:06:44.587Z,101754.13
2023-01-20T19:09:12.773Z,101762.22
2023-01-20T19:11:41.979Z,101762.56
2023-01-20T19:14:13.518Z,101766.88
2023-01-20T19:16:49.134Z,101775.97
2023-01-20T19:19:20.082Z,101773.84
2023-01-20T19:21:51.879Z,101775.00
2023-01-20T19:24:20.947Z,101779.47
2023-01-20T19:26:48.109Z,101789.22
2023-01-20T19:29:17.171Z,101778.97
2023-01-20T19:31:45.039Z,101777.50
2023-01-20T19:34:12.842Z,101789.91
2023-01-20T19:36:39.797Z,101802.97
2023-01-20T19:39:06.849Z,101806.44
2023-01-20T19:41:35.708Z,101805.44
2023-01-20T19:44:04.420Z,101810.56
2023-01-20T19:46:34.665Z,101811.72
2023-01-20T19:49:02.248Z,101812.88
2023-01-20T19:51:31.186Z,101809.41
2023-01-20T19:54:00.374Z,101818.34
2023-01-20T19:56:31.656Z,101822.16
2023-01-20T19:59:02.325Z,101824.13
2023-01-20T20:01:36.126Z,101827.59
2023-01-20T20:04:10.053Z,101833.72
2023-01-20T20:06:48.503Z,101832.41
2023-01-20T20:09:21.248Z,101832.56
2023-01-20T20:11:49.125Z,101832.75
2023-01-20T20:14:19.288Z,101834.56
2023-01-20T20:16:47.043Z,101831.09
2023-01-20T20:19:17.877Z,101845.31
2023-01-20T20:21:45.923Z,101833.91
2023-01-20T20:24:14.542Z,101831.09
2023-01-20T20:26:41.956Z,101835.38
2023-01-20T20:29:10.058Z,101832.75
2023-01-20T20:31:38.270Z,101851.09
2023-01-20T20:34:08.514Z,101849.78
2023-01-20T20:36:35.991Z,101859.84
2023-01-20T20:39:05.071Z,101859.19
2023-01-20T20:41:33.203Z,101861.19
2023-01-20T20:44:01.599Z,101867.63
2023-01-20T20:46:29.532Z,101875.56
2023-01-20T20:49:02.076Z,101873.25
2023-01-20T20:51:32.468Z,101878.38
2023-01-20T20:54:01.867Z,101875.41
2023-01-20T20:56:33.058Z,101880.84
2023-01-20T20:59:03.083Z,101881.69
2023-01-20T21:01:33.746Z,101876.72
2023-01-20T21:04:04.223Z,101879.53
2023-01-20T21:06:32.643Z,101890.59
2023-01-20T21:09:00.202Z,101895.22
2023-01-20T21:11:28.194Z,101898.53
2023-01-20T21:13:55.731Z,101893.88
2023-01-20T21:16:24.171Z,101904.47
2023-01-20T21:18:56.752Z,101909.09
2023-01-20T21:21:24.376Z,101897.81
2023-01-20T21:23:53.861Z,101903.63
2023-01-20T21:26:22.222Z,101910.06
2023-01-20T21:28:49.185Z,101911.88
2023-01-20T21:31:22.723Z,101911.19
2023-01-20T21:33:58.215Z,101909.88
2023-01-20T21:36:26.665Z,101925.75
2023-01-20T21:38:53.632Z,101922.09
2023-01-20T21:41:20.831Z,101927.03
2023-01-20T21:44:08.079Z,101939.41
2023-01-20T21:46:39.834Z,101929.47
2023-01-20T21:49:26.995Z,101940.22
2023-01-20T21:52:14.068Z,101936.22
2023-01-20T21:54:41.359Z,101945.94
2023-01-20T21:57:09.148Z,101939.84
2023-01-20T21:59:36.410Z,101941.81
2023-01-20T22:02:03.579Z,101943.97
2023-01-20T22:04:30.465Z,101948.13
2023-01-20T22:06:57.943Z,101952.09
2023-01-20T22:09:24.873Z,101953.75
2023-01-20T22:11:51.988Z,101942.34
2023-01-20T22:14:18.842Z,101953.09
2023-01-20T22:16:45.979Z,101956.41
2023-01-20T22:19:14.586Z,101959.19
2023-01-20T22:21:42.298Z,101958.06
2023-01-20T22:24:10.311Z,101965.00
2023-01-20T22:26:37.304Z,101973.59
2023-01-20T22:29:04.597Z,101963.03
2023-01-20T22:31:33.946Z,101977.56
2023-01-20T22:34:06.615Z,101987.00
2023-01-20T22:36:34.346Z,101979.06
2023-01-20T22:39:03.255Z,101982.69
2023-01-20T22:41:31.110Z,101980.22
2023-01-20T22:43:59.006Z,101986.84
2023-01-20T22:46:29.086Z,101993.78
2023-01-20T22:48:57.479Z,101990.00
2023-01-20T22:51:27.691Z,101995.44
2023-01-20T22:53:56.331Z,102006.53
2023-01-20T22:56:29.943Z,102018.44
2023-01-20T22:58:58.621Z,102014.00
2023-01-20T23:01:33.061Z,102012.50
2023-01-20T23:04:06.030Z,102012.66
2023-01-20T23:06:35.621Z,102010.47
2023-01-20T23:09:12.634Z,102011.31
2023-01-20T23:11:39.947Z,102012.78
2023-01-20T23:14:10.810Z,102011.44
2023-01-20T23:16:37.830Z,102019.38
2023-01-20T23:19:04.915Z,102011.75
2023-01-20T23:21:32.359Z,102012.56
2023-01-20T23:23:59.256Z,102004.81
2023-01-20T23:26:29.974Z,102009.09
2023-01-20T23:28:57.419Z,102015.06
2023-01-20T23:31:25.949Z,102015.72
2023-01-20T23:33:54.239Z,102010.59
2023-01-20T23:36:25.667Z,102025.78
2023-01-20T23:38:56.060Z,102021.97
2023-01-20T23:41:24.054Z,102020.31
2023-01-20T23:43:51.251Z,102016.47
2023-01-20T23:46:18.424Z,102019.44
2023-01-20T23:48:46.815Z,102028.19
2023-01-20T23:51:14.143Z,102018.94
2023-01-20T23:53:41.410Z,102023.38
2023-01-20T23:56:14.710Z,102020.59
2023-01-20T23:58:42.238Z,102022.56
